createdAt,value
2019-02-14T00:01:52.726Z,1.94
2019-02-14T00:04:21.154Z,2.00
2019-02-14T00:06:49.548Z,2.00
2019-02-14T00:09:18.036Z,2.01
2019-02-14T00:11:46.445Z,2.01
2019-02-14T00:14:14.837Z,1.97
2019-02-14T00:16:43.270Z,1.97
2019-02-14T00:19:11.675Z,1.95
2019-02-14T00:21:40.088Z,1.91
2019-02-14T00:24:08.490Z,1.91
2019-02-14T00:26:36.881Z,1.90
2019-02-14T00:29:05.357Z,1.78
2019-02-14T00:31:33.780Z,1.70
2019-02-14T00:34:02.177Z,1.66
2019-02-14T00:36:30.576Z,1.57
2019-02-14T00:38:58.976Z,1.47
2019-02-14T00:41:27.381Z,1.47
2019-02-14T00:43:55.796Z,1.45
2019-02-14T00:46:24.210Z,1.45
2019-02-14T00:48:52.631Z,1.45
2019-02-14T00:51:21.037Z,1.37
2019-02-14T00:53:49.454Z,1.41
2019-02-14T00:56:17.862Z,1.30
2019-02-14T00:58:46.281Z,1.18
2019-02-14T01:01:14.679Z,1.15
2019-02-14T01:03:43.142Z,1.10
2019-02-14T01:06:11.637Z,1.12
2019-02-14T01:08:40.052Z,1.18
2019-02-14T01:11:08.467Z,1.17
2019-02-14T01:13:36.859Z,1.20
2019-02-14T01:16:05.338Z,1.19
2019-02-14T01:18:33.755Z,1.07
2019-02-14T01:21:02.149Z,1.05
2019-02-14T01:23:30.626Z,1.04
2019-02-14T01:25:59.106Z,1.07
2019-02-14T01:28:27.505Z,1.16
2019-02-14T01:30:55.940Z,1.26
2019-02-14T01:33:24.405Z,1.26
2019-02-14T01:35:52.968Z,1.20
2019-02-14T01:38:21.402Z,1.13
2019-02-14T01:40:49.801Z,1.10
2019-02-14T01:43:18.207Z,1.01
2019-02-14T01:45:46.623Z,0.96
2019-02-14T01:48:15.017Z,0.96
2019-02-14T01:50:43.424Z,1.03
2019-02-14T01:53:11.831Z,1.01
2019-02-14T01:55:40.245Z,1.01
2019-02-14T01:58:08.724Z,1.00
2019-02-14T02:00:37.117Z,0.95
2019-02-14T02:03:05.589Z,0.84
2019-02-14T02:05:34.017Z,0.82
2019-02-14T02:08:02.414Z,0.83
2019-02-14T02:10:30.923Z,0.79
2019-02-14T02:12:59.395Z,0.78
2019-02-14T02:15:27.888Z,0.78
2019-02-14T02:17:56.281Z,0.76
2019-02-14T02:20:33.017Z,0.79
2019-02-14T02:22:54.813Z,0.82
2019-02-14T02:25:23.236Z,0.88
2019-02-14T02:27:51.636Z,0.89
2019-02-14T02:30:20.050Z,0.82
2019-02-14T02:32:48.441Z,0.79
2019-02-14T02:35:16.866Z,0.78
2019-02-14T02:37:45.272Z,0.72
2019-02-14T02:40:13.662Z,0.73
2019-02-14T02:42:42.077Z,0.73
2019-02-14T02:45:13.661Z,0.77
2019-02-14T02:47:42.055Z,0.74
2019-02-14T02:50:12.189Z,0.76
2019-02-14T02:52:40.669Z,0.75
2019-02-14T02:55:10.502Z,0.75
2019-02-14T02:57:38.899Z,0.66
2019-02-14T03:00:15.786Z,0.60
2019-02-14T03:02:44.182Z,0.47
2019-02-14T03:05:14.330Z,0.52
2019-02-14T03:07:42.766Z,0.60
2019-02-14T03:10:13.102Z,0.66
2019-02-14T03:12:41.598Z,0.60
2019-02-14T03:15:12.326Z,0.51
2019-02-14T03:17:40.819Z,0.52
2019-02-14T03:20:11.901Z,0.52
2019-02-14T03:22:40.302Z,0.46
2019-02-14T03:25:17.391Z,0.37
2019-02-14T03:27:45.816Z,0.35
2019-02-14T03:30:15.951Z,0.22
2019-02-14T03:32:44.425Z,0.24
2019-02-14T03:35:12.902Z,0.35
2019-02-14T03:37:41.309Z,0.39
2019-02-14T03:40:12.505Z,0.36
2019-02-14T03:42:40.913Z,0.30
2019-02-14T03:45:16.990Z,0.23
2019-02-14T03:47:45.385Z,0.22
2019-02-14T03:50:14.233Z,0.27
2019-02-14T03:52:42.707Z,0.25
2019-02-14T03:55:11.952Z,0.29
2019-02-14T03:57:40.444Z,0.32
2019-02-14T04:00:14.331Z,0.32
2019-02-14T04:02:42.719Z,0.18
2019-02-14T04:05:11.299Z,0.07
2019-02-14T04:07:40.148Z,0.00
2019-02-14T04:10:13.473Z,0.08
2019-02-14T04:12:41.972Z,0.13
2019-02-14T04:15:16.020Z,0.19
2019-02-14T04:17:44.424Z,0.27
2019-02-14T04:20:13.637Z,0.32
2019-02-14T04:22:42.035Z,0.23
2019-02-14T04:25:11.016Z,0.09
2019-02-14T04:27:39.464Z,0.07
2019-02-14T04:30:12.731Z,-0.01
2019-02-14T04:32:41.199Z,-0.09
2019-02-14T04:35:09.963Z,-0.04
2019-02-14T04:37:38.378Z,-0.05
2019-02-14T04:40:09.880Z,-0.01
2019-02-14T04:42:38.307Z,-0.08
2019-02-14T04:45:08.239Z,-0.17
2019-02-14T04:47:36.646Z,-0.09
2019-02-14T04:50:07.314Z,-0.06
2019-02-14T04:52:35.693Z,0.04
2019-02-14T04:55:05.922Z,0.08
2019-02-14T04:57:34.351Z,-0.01
2019-02-14T05:00:03.007Z,-0.06
2019-02-14T05:02:31.413Z,-0.18
2019-02-14T05:04:59.838Z,-0.27
2019-02-14T05:07:28.281Z,-0.27
2019-02-14T05:09:56.698Z,-0.26
2019-02-14T05:12:26.256Z,-0.24
2019-02-14T05:14:54.705Z,-0.21
2019-02-14T05:17:23.119Z,-0.15
2019-02-14T05:19:51.524Z,-0.23
2019-02-14T05:22:19.938Z,-0.26
2019-02-14T05:24:48.345Z,-0.26
2019-02-14T05:27:16.754Z,-0.28
2019-02-14T05:29:45.143Z,-0.40
2019-02-14T05:32:13.553Z,-0.44
2019-02-14T05:34:41.977Z,-0.50
2019-02-14T05:37:10.397Z,-0.46
2019-02-14T05:39:38.813Z,-0.46
2019-02-14T05:42:07.219Z,-0.38
2019-02-14T05:44:35.640Z,-0.33
2019-02-14T05:47:04.115Z,-0.33
2019-02-14T05:49:32.528Z,-0.32
2019-02-14T05:52:00.920Z,-0.28
2019-02-14T05:54:29.342Z,-0.25
2019-02-14T05:56:57.744Z,-0.14
2019-02-14T05:59:26.170Z,-0.11
2019-02-14T06:01:54.575Z,-0.14
2019-02-14T06:04:22.978Z,-0.21
2019-02-14T06:06:51.394Z,-0.35
2019-02-14T06:09:19.800Z,-0.36
2019-02-14T06:11:48.234Z,-0.34
2019-02-14T06:14:16.660Z,-0.37
2019-02-14T06:16:45.081Z,-0.42
2019-02-14T06:19:13.515Z,-0.37
2019-02-14T06:21:41.903Z,-0.26
2019-02-14T06:24:10.335Z,-0.20
2019-02-14T06:26:38.726Z,-0.22
2019-02-14T06:29:07.157Z,-0.29
2019-02-14T06:31:35.569Z,-0.34
2019-02-14T06:34:03.982Z,-0.30
2019-02-14T06:36:32.396Z,-0.26
2019-02-14T06:39:00.791Z,-0.21
2019-02-14T06:41:29.241Z,-0.15
2019-02-14T06:43:57.659Z,-0.16
2019-02-14T06:46:26.078Z,-0.14
2019-02-14T06:48:54.487Z,-0.13
2019-02-14T06:51:22.901Z,-0.23
2019-02-14T06:53:51.302Z,-0.45
2019-02-14T06:56:19.722Z,-0.59
2019-02-14T06:58:48.217Z,-2.87
2019-02-14T07:01:16.645Z,-0.59
2019-02-14T07:03:45.070Z,-0.54
2019-02-14T07:06:13.474Z,-0.46
2019-02-14T07:08:41.912Z,-0.40
2019-02-14T07:11:10.320Z,-0.44
2019-02-14T07:13:38.734Z,-0.44
2019-02-14T07:16:07.146Z,-0.41
2019-02-14T07:18:35.548Z,-0.40
2019-02-14T07:21:03.963Z,-0.42
2019-02-14T07:23:32.370Z,-0.43
2019-02-14T07:26:00.846Z,-0.44
2019-02-14T07:28:29.316Z,-0.42
2019-02-14T07:30:57.754Z,-0.42
2019-02-14T07:33:26.170Z,-0.38
2019-02-14T07:35:54.579Z,-0.32
2019-02-14T07:38:22.994Z,-0.23
2019-02-14T07:40:51.440Z,-0.15
2019-02-14T07:43:19.893Z,-0.06
2019-02-14T07:45:48.325Z,-0.02
2019-02-14T07:48:16.724Z,-0.02
2019-02-14T07:50:45.119Z,0.01
2019-02-14T07:53:14.806Z,0.06
2019-02-14T07:55:43.206Z,0.11
2019-02-14T07:58:11.600Z,0.15
2019-02-14T08:00:40.014Z,0.17
2019-02-14T08:03:08.422Z,0.11
2019-02-14T08:05:36.850Z,0.09
2019-02-14T08:08:05.254Z,0.08
2019-02-14T08:10:33.671Z,0.10
2019-02-14T08:13:02.071Z,0.12
2019-02-14T08:15:30.673Z,0.13
2019-02-14T08:17:59.078Z,-2.70
2019-02-14T08:20:27.477Z,0.21
2019-02-14T08:22:55.920Z,0.23
2019-02-14T08:25:24.320Z,0.29
2019-02-14T08:27:52.753Z,0.32
2019-02-14T08:30:21.323Z,0.36
2019-02-14T08:32:49.741Z,0.40
2019-02-14T08:35:18.169Z,0.45
2019-02-14T08:37:46.549Z,0.49
2019-02-14T08:40:26.925Z,0.52
2019-02-14T08:42:55.408Z,0.57
2019-02-14T08:45:24.035Z,0.63
2019-02-14T08:47:52.429Z,0.69
2019-02-14T08:50:20.944Z,0.76
2019-02-14T08:52:49.375Z,0.84
2019-02-14T08:55:17.775Z,0.96
2019-02-14T08:57:46.177Z,1.06
2019-02-14T09:00:16.032Z,1.15
2019-02-14T09:02:44.435Z,1.25
2019-02-14T09:05:12.981Z,1.34
2019-02-14T09:07:41.387Z,1.42
2019-02-14T09:10:12.880Z,1.50
2019-02-14T09:12:41.281Z,1.64
2019-02-14T09:15:14.369Z,1.67
2019-02-14T09:17:42.793Z,1.71
2019-02-14T09:20:14.012Z,2.04
2019-02-14T09:22:42.439Z,2.29
2019-02-14T09:25:10.918Z,2.34
2019-02-14T09:27:39.426Z,2.38
2019-02-14T09:30:14.751Z,2.35
2019-02-14T09:32:43.385Z,2.35
2019-02-14T09:35:11.947Z,2.36
2019-02-14T09:37:40.350Z,2.40
2019-02-14T09:40:14.050Z,2.40
2019-02-14T09:42:42.608Z,2.42
2019-02-14T09:45:12.849Z,2.48
2019-02-14T09:47:41.326Z,2.55
2019-02-14T09:50:12.660Z,2.64
2019-02-14T09:52:41.740Z,2.71
2019-02-14T09:55:12.465Z,2.98
2019-02-14T09:57:40.896Z,3.10
2019-02-14T10:00:17.410Z,3.08
2019-02-14T10:02:45.807Z,3.00
2019-02-14T10:05:15.236Z,2.98
2019-02-14T10:07:43.754Z,3.08
2019-02-14T10:10:14.835Z,3.22
2019-02-14T10:12:43.258Z,3.24
2019-02-14T10:15:11.996Z,3.31
2019-02-14T10:17:40.425Z,3.33
2019-02-14T10:20:12.242Z,3.33
2019-02-14T10:22:40.736Z,3.45
2019-02-14T10:25:09.469Z,3.56
2019-02-14T10:27:37.896Z,3.56
2019-02-14T10:30:14.988Z,3.73
2019-02-14T10:32:43.456Z,3.92
2019-02-14T10:35:12.025Z,4.09
2019-02-14T10:37:40.431Z,4.09
2019-02-14T10:40:13.948Z,4.05
2019-02-14T10:42:42.441Z,3.88
2019-02-14T10:45:19.090Z,3.81
2019-02-14T10:47:47.502Z,3.95
2019-02-14T10:50:16.039Z,4.22
2019-02-14T10:52:44.462Z,4.58
2019-02-14T10:55:14.602Z,4.73
2019-02-14T10:57:43.090Z,4.73
2019-02-14T11:00:25.662Z,4.74
2019-02-14T11:02:54.151Z,4.77
2019-02-14T11:05:22.728Z,4.75
2019-02-14T11:07:51.277Z,4.76
2019-02-14T11:10:20.121Z,4.86
2019-02-14T11:12:48.545Z,4.80
2019-02-14T11:15:19.283Z,4.92
2019-02-14T11:17:49.052Z,4.99
2019-02-14T11:20:18.107Z,5.48
2019-02-14T11:22:48.840Z,5.72
2019-02-14T11:25:29.095Z,5.56
2019-02-14T11:27:57.506Z,5.33
2019-02-14T11:30:26.008Z,5.23
2019-02-14T11:32:54.413Z,5.25
2019-02-14T11:35:22.904Z,5.52
2019-02-14T11:37:51.300Z,5.63
2019-02-14T11:40:19.768Z,5.50
2019-02-14T11:42:48.197Z,5.44
2019-02-14T11:45:24.712Z,5.61
2019-02-14T11:47:53.136Z,5.51
2019-02-14T11:50:21.527Z,5.69
2019-02-14T11:52:49.953Z,5.74
2019-02-14T11:55:18.384Z,5.87
2019-02-14T11:57:46.859Z,6.10
2019-02-14T12:00:26.241Z,6.08
2019-02-14T12:02:55.894Z,6.71
2019-02-14T12:05:24.709Z,6.59
2019-02-14T12:07:53.208Z,6.44
2019-02-14T12:10:21.633Z,6.50
2019-02-14T12:12:50.130Z,6.57
2019-02-14T12:15:18.618Z,6.50
2019-02-14T12:17:47.092Z,6.33
2019-02-14T12:20:16.378Z,6.59
2019-02-14T12:22:47.220Z,7.13
2019-02-14T12:25:25.561Z,7.24
2019-02-14T12:27:53.969Z,7.31
2019-02-14T12:30:22.898Z,7.24
2019-02-14T12:32:51.314Z,7.15
2019-02-14T12:35:19.709Z,7.08
2019-02-14T12:37:48.109Z,7.02
2019-02-14T12:40:16.546Z,7.16
2019-02-14T12:42:44.942Z,7.12
2019-02-14T12:45:21.615Z,7.28
2019-02-14T12:47:46.785Z,7.33
2019-02-14T12:50:15.261Z,7.33
2019-02-14T12:52:43.692Z,7.20
2019-02-14T12:55:12.160Z,7.17
2019-02-14T12:57:40.571Z,7.05
2019-02-14T13:00:15.027Z,6.87
2019-02-14T13:02:43.433Z,6.89
2019-02-14T13:05:12.082Z,7.00
2019-02-14T13:07:40.505Z,7.04
2019-02-14T13:10:12.127Z,7.08
2019-02-14T13:12:40.607Z,7.21
2019-02-14T13:15:11.956Z,7.19
2019-02-14T13:17:40.386Z,7.23
2019-02-14T13:20:09.336Z,7.30
2019-02-14T13:22:37.726Z,7.38
2019-02-14T13:25:11.883Z,7.47
2019-02-14T13:27:40.438Z,7.83
2019-02-14T13:30:12.114Z,8.81
2019-02-14T13:32:40.511Z,9.62
2019-02-14T13:35:08.906Z,10.10
2019-02-14T13:37:37.394Z,10.58
2019-02-14T13:40:07.138Z,10.81
2019-02-14T13:42:35.550Z,10.79
2019-02-14T13:45:04.525Z,11.07
2019-02-14T13:47:32.939Z,11.20
2019-02-14T13:50:01.353Z,11.49
2019-02-14T13:52:29.758Z,12.09
2019-02-14T13:54:58.187Z,12.17
2019-02-14T13:57:26.574Z,12.31
2019-02-14T13:59:54.991Z,12.64
2019-02-14T14:02:23.442Z,13.00
2019-02-14T14:04:51.869Z,13.02
2019-02-14T14:07:20.377Z,13.18
2019-02-14T14:09:48.893Z,13.35
2019-02-14T14:12:17.272Z,13.54
2019-02-14T14:14:45.713Z,13.63
2019-02-14T14:17:14.138Z,13.45
2019-02-14T14:19:42.532Z,13.36
2019-02-14T14:22:11.025Z,13.13
2019-02-14T14:24:39.451Z,13.14
2019-02-14T14:27:07.884Z,12.97
2019-02-14T14:29:36.313Z,12.87
2019-02-14T14:32:04.737Z,12.88
2019-02-14T14:34:33.158Z,12.68
2019-02-14T14:37:01.571Z,12.57
2019-02-14T14:39:29.988Z,12.50
2019-02-14T14:41:58.472Z,12.45
2019-02-14T14:44:28.543Z,12.38
2019-02-14T14:46:56.967Z,12.19
2019-02-14T14:49:25.404Z,12.06
2019-02-14T14:51:53.811Z,11.92
2019-02-14T14:54:22.292Z,11.77
2019-02-14T14:56:50.708Z,11.55
2019-02-14T14:59:19.127Z,11.44
2019-02-14T15:01:47.531Z,11.34
2019-02-14T15:04:15.953Z,11.30
2019-02-14T15:06:44.394Z,11.42
2019-02-14T15:09:12.790Z,11.29
2019-02-14T15:11:41.219Z,11.03
2019-02-14T15:14:09.646Z,10.86
2019-02-14T15:16:38.047Z,10.67
2019-02-14T15:19:06.485Z,10.59
2019-02-14T15:21:34.897Z,10.42
2019-02-14T15:24:03.366Z,10.30
2019-02-14T15:26:31.804Z,10.14
2019-02-14T15:29:00.189Z,9.92
2019-02-14T15:31:28.632Z,9.80
2019-02-14T15:33:57.150Z,9.70
2019-02-14T15:36:28.151Z,9.57
2019-02-14T15:38:55.692Z,9.50
2019-02-14T15:41:25.012Z,9.40
2019-02-14T15:43:53.411Z,9.30
2019-02-14T15:46:21.832Z,9.36
2019-02-14T15:48:50.259Z,9.37
2019-02-14T15:51:20.020Z,9.34
2019-02-14T15:53:48.581Z,9.29
2019-02-14T15:56:16.982Z,9.23
2019-02-14T15:58:45.397Z,9.18
2019-02-14T16:01:16.404Z,9.04
2019-02-14T16:03:43.940Z,8.95
2019-02-14T16:06:12.362Z,8.84
2019-02-14T16:08:40.780Z,8.73
2019-02-14T16:11:10.160Z,8.70
2019-02-14T16:13:39.326Z,8.59
2019-02-14T16:16:07.728Z,8.49
2019-02-14T16:18:36.186Z,8.35
2019-02-14T16:21:05.802Z,8.26
2019-02-14T16:23:34.705Z,8.19
2019-02-14T16:26:03.267Z,8.09
2019-02-14T16:28:31.678Z,8.04
2019-02-14T16:31:00.088Z,7.99
2019-02-14T16:33:28.490Z,7.92
2019-02-14T16:35:56.892Z,7.82
2019-02-14T16:38:25.305Z,7.70
2019-02-14T16:40:53.709Z,7.69
2019-02-14T16:43:22.130Z,7.70
2019-02-14T16:45:50.532Z,7.61
2019-02-14T16:48:18.935Z,7.45
2019-02-14T16:50:47.404Z,7.31
2019-02-14T16:53:15.828Z,7.23
2019-02-14T16:55:44.250Z,7.20
2019-02-14T16:58:12.670Z,7.25
2019-02-14T17:00:41.088Z,7.28
2019-02-14T17:03:09.578Z,7.23
2019-02-14T17:05:37.997Z,7.16
2019-02-14T17:08:06.391Z,7.02
2019-02-14T17:10:36.964Z,6.88
2019-02-14T17:13:04.987Z,6.81
2019-02-14T17:15:33.414Z,6.76
2019-02-14T17:18:01.812Z,6.71
2019-02-14T17:20:30.223Z,6.64
2019-02-14T17:22:58.626Z,6.54
2019-02-14T17:25:27.017Z,6.42
2019-02-14T17:27:55.534Z,6.19
2019-02-14T17:30:23.996Z,6.25
2019-02-14T17:32:52.397Z,6.16
2019-02-14T17:35:20.821Z,6.06
2019-02-14T17:37:49.218Z,5.99
2019-02-14T17:40:17.641Z,5.90
2019-02-14T17:42:46.058Z,5.79
2019-02-14T17:45:14.518Z,5.69
2019-02-14T17:47:42.945Z,5.64
2019-02-14T17:50:11.404Z,5.54
2019-02-14T17:52:39.819Z,5.48
2019-02-14T17:55:09.879Z,5.41
2019-02-14T17:57:38.295Z,5.40
2019-02-14T18:00:10.118Z,5.34
2019-02-14T18:02:38.542Z,5.29
2019-02-14T18:05:08.995Z,5.25
2019-02-14T18:07:37.564Z,5.19
2019-02-14T18:10:11.396Z,5.12
2019-02-14T18:12:39.800Z,5.01
2019-02-14T18:15:13.483Z,4.92
2019-02-14T18:17:41.912Z,4.82
2019-02-14T18:20:11.573Z,4.72
2019-02-14T18:22:40.062Z,4.67
2019-02-14T18:25:12.615Z,4.61
2019-02-14T18:27:41.110Z,4.54
2019-02-14T18:30:11.081Z,4.41
2019-02-14T18:32:39.536Z,4.39
2019-02-14T18:35:11.059Z,4.39
2019-02-14T18:37:39.564Z,4.31
2019-02-14T18:40:10.073Z,4.26
2019-02-14T18:42:41.128Z,4.29
2019-02-14T18:45:12.120Z,4.16
2019-02-14T18:47:40.536Z,4.12
2019-02-14T18:50:11.601Z,4.03
2019-02-14T18:52:40.011Z,4.03
2019-02-14T18:55:10.289Z,4.02
2019-02-14T18:57:38.687Z,4.02
2019-02-14T19:00:15.433Z,3.98
2019-02-14T19:02:43.853Z,4.04
2019-02-14T19:05:12.711Z,4.05
2019-02-14T19:07:41.299Z,4.06
2019-02-14T19:10:17.069Z,3.95
2019-02-14T19:12:45.534Z,3.99
2019-02-14T19:15:14.532Z,3.95
2019-02-14T19:17:43.164Z,3.91
2019-02-14T19:20:12.612Z,3.85
2019-02-14T19:22:44.065Z,3.85
2019-02-14T19:25:12.575Z,3.84
2019-02-14T19:27:40.993Z,3.83
2019-02-14T19:30:11.263Z,3.78
2019-02-14T19:32:39.839Z,3.77
2019-02-14T19:35:09.448Z,3.77
2019-02-14T19:37:37.870Z,3.71
2019-02-14T19:40:08.200Z,3.60
2019-02-14T19:42:36.673Z,3.59
2019-02-14T19:45:08.129Z,3.59
2019-02-14T19:47:36.568Z,3.61
2019-02-14T19:50:08.294Z,3.58
2019-02-14T19:52:36.703Z,3.57
2019-02-14T19:55:06.842Z,3.55
2019-02-14T19:57:35.300Z,3.53
2019-02-14T20:00:05.605Z,3.49
2019-02-14T20:02:34.016Z,3.49
2019-02-14T20:05:02.616Z,3.54
2019-02-14T20:07:31.023Z,3.49
2019-02-14T20:09:59.552Z,3.32
2019-02-14T20:12:27.928Z,3.17
2019-02-14T20:14:56.397Z,3.09
2019-02-14T20:17:25.286Z,3.06
2019-02-14T20:19:53.716Z,3.05
2019-02-14T20:22:22.222Z,2.99
2019-02-14T20:24:50.632Z,2.97
2019-02-14T20:27:19.046Z,2.98
2019-02-14T20:29:47.480Z,2.95
2019-02-14T20:32:15.912Z,3.00
2019-02-14T20:34:44.360Z,3.00
2019-02-14T20:37:12.776Z,3.00
2019-02-14T20:39:41.240Z,3.04
2019-02-14T20:42:09.706Z,2.92
2019-02-14T20:44:38.233Z,2.80
2019-02-14T20:47:06.825Z,2.74
2019-02-14T20:49:35.234Z,2.58
2019-02-14T20:52:03.737Z,2.53
2019-02-14T20:54:32.190Z,2.53
2019-02-14T20:57:00.588Z,2.51
2019-02-14T20:59:29.017Z,2.47
2019-02-14T21:01:57.558Z,2.41
2019-02-14T21:04:25.969Z,2.42
2019-02-14T21:06:54.456Z,2.43
2019-02-14T21:09:22.860Z,2.43
2019-02-14T21:11:54.764Z,2.41
2019-02-14T21:14:21.554Z,2.42
2019-02-14T21:16:49.968Z,2.36
2019-02-14T21:19:18.369Z,2.41
2019-02-14T21:21:46.799Z,2.39
2019-02-14T21:24:15.215Z,2.36
2019-02-14T21:26:43.627Z,2.37
2019-02-14T21:29:12.093Z,2.34
2019-02-14T21:31:40.488Z,2.33
2019-02-14T21:34:09.055Z,2.34
2019-02-14T21:36:37.721Z,2.33
2019-02-14T21:48:30.030Z,2.46
2019-02-14T21:50:58.484Z,2.39
2019-02-14T21:53:26.971Z,2.34
2019-02-14T21:55:55.446Z,2.38
2019-02-14T21:58:23.973Z,2.35
2019-02-14T22:03:46.452Z,2.40
2019-02-14T22:06:14.849Z,2.37
2019-02-14T22:08:43.288Z,2.37
2019-02-14T22:11:11.694Z,2.27
2019-02-14T22:13:40.141Z,2.28
2019-02-14T22:16:08.755Z,2.34
2019-02-14T22:18:37.184Z,2.36
2019-02-14T22:21:05.778Z,2.38
2019-02-14T22:23:34.420Z,2.34
2019-02-14T22:26:02.923Z,2.33
2019-02-14T22:28:31.445Z,2.30
2019-02-14T22:30:59.888Z,2.36
2019-02-14T22:33:28.355Z,2.38
2019-02-14T22:35:56.754Z,2.35
2019-02-14T22:38:25.152Z,2.34
2019-02-14T22:40:53.643Z,2.41
2019-02-14T22:43:22.058Z,2.45
2019-02-14T22:45:50.533Z,2.49
2019-02-14T22:48:18.924Z,2.50
2019-02-14T22:50:47.354Z,2.51
2019-02-14T22:53:15.760Z,2.50
2019-02-14T22:55:44.192Z,2.45
2019-02-14T22:58:12.645Z,2.39
2019-02-14T23:00:44.188Z,2.39
2019-02-14T23:03:12.669Z,2.40
2019-02-14T23:05:41.056Z,2.34
2019-02-14T23:08:09.624Z,2.33
2019-02-14T23:10:38.016Z,2.35
2019-02-14T23:13:06.583Z,2.34
2019-02-14T23:15:35.016Z,2.34
2019-02-14T23:18:03.574Z,2.27
2019-02-14T23:20:32.056Z,2.25
2019-02-14T23:23:00.456Z,2.28
2019-02-14T23:25:28.933Z,2.27
2019-02-14T23:27:57.910Z,2.19
2019-02-14T23:30:26.300Z,2.19
2019-02-14T23:32:54.755Z,2.11
2019-02-14T23:35:23.183Z,2.07
2019-02-14T23:37:51.596Z,2.03
2019-02-14T23:40:20.034Z,2.03
2019-02-14T23:42:48.450Z,2.03
2019-02-14T23:45:16.893Z,2.06
2019-02-14T23:47:45.302Z,2.05
2019-02-14T23:50:13.706Z,2.05
2019-02-14T23:52:42.107Z,2.04
2019-02-14T23:55:10.679Z,1.99
2019-02-14T23:57:39.063Z,1.98
